A21 weather

Preston Field - Blair Howe
Western Australia, Australia

Public forecast

Using degrees Celsius for public forecast. Weather courtesy of forecast.io.

METAR (pilot weather report)

Closest report is Perth Jandakot Airport, 56.1 nm (103.8 km) N. Retrieved 2019/03/20 13:00 UTC (8 minutes ago):

YPJT 201300Z AUTO 27006KT 9999 // BKN095 BKN110 24/21 Q1010

TAF (pilot weather forecast)

Closest forecast is Perth Jandakot Airport, 56.1 nm (103.8 km) N. Retrieved 2019/03/20 12:00 UTC (1 hour ago):

TAF YPJT 201033Z 2012/2106 23010KT 9999 -FU NSC FM201700 09012G20KT CAVOK FM210000 36005KT CAVOK FM210400 25010KT CAVOK